createdAt,value
2022-09-18T00:00:49.830Z,2.1
2022-09-18T00:02:49.799Z,1.9
2022-09-18T00:04:50.457Z,3.0
2022-09-18T00:06:49.711Z,4.9
2022-09-18T00:08:50.491Z,4.9
2022-09-18T00:10:50.411Z,2.9
2022-09-18T00:12:50.208Z,2.2
2022-09-18T00:14:50.336Z,2.1
2022-09-18T00:16:50.537Z,1.8
2022-09-18T00:18:50.349Z,1.8
2022-09-18T00:20:49.631Z,2.5
2022-09-18T00:22:50.508Z,1.5
2022-09-18T00:24:50.500Z,1.5
2022-09-18T00:26:49.816Z,2.3
2022-09-18T00:28:49.985Z,2.3
2022-09-18T00:30:49.882Z,1.9
2022-09-18T00:32:49.859Z,2.3
2022-09-18T00:34:50.483Z,2.9
2022-09-18T00:36:49.666Z,1.5
2022-09-18T00:38:50.430Z,4.1
2022-09-18T00:40:49.645Z,4.1
2022-09-18T00:42:50.028Z,1.5
2022-09-18T00:44:49.954Z,1.7
2022-09-18T00:46:50.117Z,2.8
2022-09-18T00:48:49.570Z,2.8
2022-09-18T00:50:50.378Z,5.3
2022-09-18T00:52:50.063Z,1.5
2022-09-18T00:54:50.006Z,2.3
2022-09-18T00:56:49.595Z,3.6
2022-09-18T00:58:49.554Z,3.6
2022-09-18T01:00:50.481Z,3.7
2022-09-18T01:02:49.658Z,2.1
2022-09-18T01:04:49.997Z,2.7
2022-09-18T01:06:50.047Z,1.9
2022-09-18T01:08:49.857Z,1.9
2022-09-18T01:10:49.842Z,2.9
2022-09-18T01:12:49.633Z,4.0
2022-09-18T01:14:50.506Z,2.7
2022-09-18T01:16:49.843Z,2.7
2022-09-18T01:18:49.586Z,3.0
2022-09-18T01:20:49.532Z,2.7
2022-09-18T01:22:50.312Z,2.7
2022-09-18T01:24:50.542Z,2.7
2022-09-18T01:26:50.484Z,2.7
2022-09-18T01:28:50.339Z,4.2
2022-09-18T01:30:50.148Z,4.2
2022-09-18T01:32:49.940Z,2.9
2022-09-18T01:34:50.117Z,2.9
2022-09-18T01:36:50.353Z,3.5
2022-09-18T01:38:50.081Z,3.2
2022-09-18T01:40:50.071Z,2.3
2022-09-18T01:42:50.248Z,2.5
2022-09-18T01:44:50.158Z,3.9
2022-09-18T01:46:50.316Z,3.9
2022-09-18T01:48:49.661Z,1.9
2022-09-18T01:50:49.857Z,3.6
2022-09-18T01:52:49.743Z,1.7
2022-09-18T01:54:49.647Z,2.6
2022-09-18T01:56:49.884Z,2.6
2022-09-18T01:58:49.623Z,3.2
2022-09-18T02:00:50.461Z,3.2
2022-09-18T02:02:50.381Z,3.0
2022-09-18T02:04:50.030Z,2.4
2022-09-18T02:06:50.112Z,2.4
2022-09-18T02:08:50.239Z,4.6
2022-09-18T02:10:50.172Z,2.7
2022-09-18T02:12:50.113Z,2.4
2022-09-18T02:14:49.758Z,2.4
2022-09-18T02:16:49.986Z,3.6
2022-09-18T02:18:49.677Z,1.9
2022-09-18T02:20:49.795Z,3.7
2022-09-18T02:22:49.639Z,4.1
2022-09-18T02:24:49.884Z,4.1
2022-09-18T02:26:50.103Z,2.3
2022-09-18T02:28:49.954Z,2.3
2022-09-18T02:30:49.683Z,3.6
2022-09-18T02:32:49.727Z,3.6
2022-09-18T02:34:50.288Z,3.3
2022-09-18T02:36:50.306Z,3.1
2022-09-18T02:38:49.830Z,3.1
2022-09-18T02:40:49.660Z,3.6
2022-09-18T02:42:49.622Z,4.5
2022-09-18T02:44:50.463Z,4.5
2022-09-18T02:46:49.644Z,3.6
2022-09-18T02:48:49.705Z,3.0
2022-09-18T02:50:50.495Z,3.0
2022-09-18T02:52:50.416Z,3.2
2022-09-18T02:54:50.168Z,2.9
2022-09-18T02:56:49.551Z,2.6
2022-09-18T02:58:50.438Z,3.3
2022-09-18T03:00:50.385Z,3.3
2022-09-18T03:02:50.404Z,4.5
2022-09-18T03:04:50.161Z,4.5
2022-09-18T03:06:50.090Z,4.1
2022-09-18T03:08:50.078Z,4.1
2022-09-18T03:10:49.938Z,2.8
2022-09-18T03:12:49.683Z,2.8
2022-09-18T03:14:50.338Z,2.5
2022-09-18T03:16:50.370Z,3.8
2022-09-18T03:18:50.284Z,2.4
2022-09-18T03:20:50.508Z,4.9
2022-09-18T03:22:50.400Z,4.9
2022-09-18T03:24:50.371Z,5.1
2022-09-18T03:26:49.628Z,4.0
2022-09-18T03:28:50.463Z,3.8
2022-09-18T03:30:50.314Z,2.6
2022-09-18T03:32:50.151Z,2.6
2022-09-18T03:34:50.522Z,3.5
2022-09-18T03:36:49.780Z,3.6
2022-09-18T03:38:50.466Z,3.9
2022-09-18T03:40:49.688Z,2.5
2022-09-18T03:42:49.694Z,2.5
2022-09-18T03:44:50.301Z,4.0
2022-09-18T03:46:50.522Z,3.7
2022-09-18T03:48:49.751Z,2.9
2022-09-18T03:50:49.776Z,3.4
2022-09-18T03:52:51.428Z,3.4
2022-09-18T03:54:50.508Z,3.2
2022-09-18T03:56:50.506Z,4.6
2022-09-18T03:58:50.369Z,2.4
2022-09-18T04:00:50.078Z,2.4
2022-09-18T04:02:50.041Z,5.4
2022-09-18T04:04:49.765Z,3.5
2022-09-18T04:06:49.889Z,3.5
2022-09-18T04:08:49.620Z,2.4
2022-09-18T04:10:50.426Z,2.4
2022-09-18T04:12:50.242Z,2.5
2022-09-18T04:14:49.946Z,2.3
2022-09-18T04:16:50.025Z,2.6
2022-09-18T04:18:49.802Z,2.2
2022-09-18T04:20:49.578Z,2.2
2022-09-18T04:22:50.529Z,4.8
2022-09-18T04:24:50.574Z,3.5
2022-09-18T04:26:49.794Z,2.7
2022-09-18T04:28:49.673Z,2.7
2022-09-18T04:30:50.451Z,2.7
2022-09-18T04:32:50.345Z,3.1
2022-09-18T04:34:50.529Z,3.7
2022-09-18T04:36:49.608Z,3.7
2022-09-18T04:38:50.529Z,2.4
2022-09-18T04:40:50.242Z,3.6
2022-09-18T04:42:50.182Z,2.2
2022-09-18T04:44:49.864Z,3.8
2022-09-18T04:46:50.270Z,2.4
2022-09-18T04:48:49.759Z,2.4
2022-09-18T04:50:49.797Z,2.4
2022-09-18T04:52:49.827Z,2.4
2022-09-18T04:54:49.714Z,3.0
2022-09-18T04:56:49.762Z,3.0
2022-09-18T04:58:49.678Z,2.8
2022-09-18T05:00:50.494Z,2.8
2022-09-18T05:02:49.803Z,3.2
2022-09-18T05:04:50.077Z,2.1
2022-09-18T05:06:50.243Z,2.1
2022-09-18T05:08:50.457Z,2.1
2022-09-18T05:10:50.228Z,2.1
2022-09-18T05:12:49.925Z,3.3
2022-09-18T05:14:49.725Z,3.3
2022-09-18T05:16:49.866Z,2.4
2022-09-18T05:18:49.627Z,2.5
2022-09-18T05:20:49.583Z,4.0
2022-09-18T05:22:50.403Z,2.5
2022-09-18T05:24:50.083Z,2.1
2022-09-18T05:26:50.314Z,2.1
2022-09-18T05:28:49.987Z,2.5
2022-09-18T05:30:49.922Z,3.9
2022-09-18T05:32:49.872Z,3.9
2022-09-18T05:34:50.430Z,2.3
2022-09-18T05:36:49.643Z,2.3
2022-09-18T05:38:50.381Z,3.4
2022-09-18T05:40:50.114Z,3.0
2022-09-18T05:42:50.145Z,3.5
2022-09-18T05:44:50.013Z,3.5
2022-09-18T05:46:50.246Z,3.2
2022-09-18T05:48:50.517Z,2.3
2022-09-18T05:50:49.647Z,2.0
2022-09-18T05:52:49.639Z,2.2
2022-09-18T05:54:49.766Z,2.2
2022-09-18T05:56:50.080Z,3.5
2022-09-18T05:58:49.918Z,3.4
2022-09-18T06:00:50.053Z,2.0
2022-09-18T06:02:49.759Z,2.3
2022-09-18T06:04:50.387Z,2.3
2022-09-18T06:06:49.549Z,2.2
2022-09-18T06:08:49.629Z,3.1
2022-09-18T06:10:49.619Z,3.1
2022-09-18T06:12:50.517Z,2.9
2022-09-18T06:14:50.470Z,2.9
2022-09-18T06:16:50.546Z,2.7
2022-09-18T06:18:49.663Z,2.3
2022-09-18T06:20:49.534Z,2.3
2022-09-18T06:22:50.399Z,3.7
2022-09-18T06:24:50.193Z,3.7
2022-09-18T06:26:50.321Z,2.6
2022-09-18T06:28:50.221Z,2.6
2022-09-18T06:30:50.171Z,2.3
2022-09-18T06:32:50.024Z,2.3
2022-09-18T06:34:49.808Z,2.0
2022-09-18T06:36:50.150Z,2.1
2022-09-18T06:38:49.853Z,2.1
2022-09-18T06:40:49.812Z,2.1
2022-09-18T06:42:49.731Z,2.6
2022-09-18T06:44:49.557Z,2.6
2022-09-18T06:46:49.773Z,2.3
2022-09-18T06:48:49.797Z,2.2
2022-09-18T06:50:49.753Z,1.9
2022-09-18T06:52:49.612Z,3.4
2022-09-18T06:54:50.465Z,3.4
2022-09-18T06:56:49.704Z,2.7
2022-09-18T06:58:49.637Z,2.1
2022-09-18T07:00:50.571Z,2.1
2022-09-18T07:02:49.983Z,2.6
2022-09-18T07:04:49.701Z,2.6
2022-09-18T07:06:49.937Z,2.1
2022-09-18T07:08:49.690Z,2.5
2022-09-18T07:10:50.413Z,3.6
2022-09-18T07:12:50.291Z,3.6
2022-09-18T07:14:50.197Z,4.0
2022-09-18T07:16:50.324Z,2.3
2022-09-18T07:18:50.369Z,1.9
2022-09-18T07:20:49.738Z,2.3
2022-09-18T07:22:49.799Z,2.3
2022-09-18T07:24:49.789Z,3.4
2022-09-18T07:26:50.067Z,3.2
2022-09-18T07:28:50.082Z,3.2
2022-09-18T07:30:49.840Z,3.2
2022-09-18T07:32:49.764Z,3.2
2022-09-18T07:34:50.311Z,3.6
2022-09-18T07:36:50.494Z,2.3
2022-09-18T07:38:50.302Z,2.6
2022-09-18T07:40:50.094Z,2.6
2022-09-18T07:42:50.106Z,2.6
2022-09-18T07:44:50.077Z,3.1
2022-09-18T07:46:49.770Z,2.5
2022-09-18T07:48:50.090Z,2.1
2022-09-18T07:50:50.282Z,2.7
2022-09-18T07:52:50.076Z,2.7
2022-09-18T07:54:50.005Z,2.6
2022-09-18T07:56:50.317Z,3.1
2022-09-18T07:58:50.181Z,3.1
2022-09-18T08:00:49.933Z,3.1
2022-09-18T08:02:49.876Z,4.0
2022-09-18T08:04:50.145Z,4.0
2022-09-18T08:06:50.323Z,2.2
2022-09-18T08:08:54.373Z,2.2
2022-09-18T08:10:50.125Z,2.2
2022-09-18T08:12:50.095Z,2.4
2022-09-18T08:14:49.839Z,2.7
2022-09-18T08:16:50.064Z,2.2
2022-09-18T08:18:50.050Z,2.2
2022-09-18T08:20:50.148Z,2.5
2022-09-18T08:22:50.098Z,2.3
2022-09-18T08:24:50.021Z,2.3
2022-09-18T08:26:50.340Z,2.3
2022-09-18T08:28:50.417Z,3.4
2022-09-18T08:30:50.439Z,2.7
2022-09-18T08:32:50.540Z,2.2
2022-09-18T08:34:50.133Z,2.0
2022-09-18T08:36:49.916Z,2.0
2022-09-18T08:38:50.200Z,1.9
2022-09-18T08:40:50.184Z,1.9
2022-09-18T08:42:50.124Z,2.1
2022-09-18T08:44:50.286Z,2.1
2022-09-18T08:46:50.490Z,2.1
2022-09-18T08:48:49.940Z,2.4
2022-09-18T08:50:50.167Z,2.4
2022-09-18T08:52:50.039Z,3.1
2022-09-18T08:54:50.136Z,2.2
2022-09-18T08:56:50.439Z,1.9
2022-09-18T08:58:50.324Z,1.9
2022-09-18T09:00:50.344Z,2.0
2022-09-18T09:02:49.862Z,2.1
2022-09-18T09:04:50.106Z,1.9
2022-09-18T09:06:50.247Z,1.6
2022-09-18T09:08:50.196Z,1.6
2022-09-18T09:10:50.078Z,2.1
2022-09-18T09:12:49.796Z,1.7
2022-09-18T09:14:56.946Z,1.8
2022-09-18T09:16:50.180Z,3.0
2022-09-18T09:18:49.822Z,3.0
2022-09-18T09:20:49.698Z,1.7
2022-09-18T09:22:50.410Z,2.8
2022-09-18T09:24:50.310Z,1.7
2022-09-18T09:26:49.727Z,2.3
2022-09-18T09:28:50.496Z,2.3
2022-09-18T09:30:50.368Z,1.6
2022-09-18T09:32:50.277Z,1.8
2022-09-18T09:34:49.770Z,1.8
2022-09-18T09:36:50.129Z,1.8
2022-09-18T09:38:49.906Z,1.7
2022-09-18T09:40:49.732Z,1.3
2022-09-18T09:42:49.689Z,3.0
2022-09-18T09:44:49.619Z,2.2
2022-09-18T09:46:49.976Z,2.2
2022-09-18T09:48:50.381Z,1.5
2022-09-18T09:50:49.702Z,1.8
2022-09-18T09:52:49.829Z,1.8
2022-09-18T09:54:49.910Z,1.6
2022-09-18T09:56:50.366Z,1.6
2022-09-18T09:58:50.439Z,1.8
2022-09-18T10:00:50.412Z,1.9
2022-09-18T10:02:49.630Z,1.9
2022-09-18T10:04:49.612Z,1.4
2022-09-18T10:06:50.197Z,1.4
2022-09-18T10:08:50.312Z,1.4
2022-09-18T10:10:50.407Z,1.5
2022-09-18T10:12:50.360Z,1.4
2022-09-18T10:14:50.495Z,1.4
2022-09-18T10:16:50.489Z,1.6
2022-09-18T10:18:50.594Z,1.5
2022-09-18T10:20:49.943Z,1.5
2022-09-18T10:22:49.762Z,1.7
2022-09-18T10:24:49.853Z,1.7
2022-09-18T10:26:50.100Z,1.5
2022-09-18T10:28:50.226Z,1.9
2022-09-18T10:30:50.054Z,1.7
2022-09-18T10:32:49.976Z,1.7
2022-09-18T10:34:50.383Z,1.5
2022-09-18T10:36:49.810Z,1.5
2022-09-18T10:38:49.801Z,1.5
2022-09-18T10:40:49.840Z,1.7
2022-09-18T10:42:49.739Z,1.7
2022-09-18T10:44:49.621Z,1.6
2022-09-18T10:46:49.793Z,1.4
2022-09-18T10:48:50.206Z,1.9
2022-09-18T10:50:50.527Z,1.9
2022-09-18T10:52:50.495Z,1.6
2022-09-18T10:54:49.643Z,1.7
2022-09-18T10:56:49.934Z,1.8
2022-09-18T10:58:49.844Z,1.7
2022-09-18T11:00:49.971Z,1.7
2022-09-18T11:02:50.222Z,2.2
2022-09-18T11:04:49.760Z,2.0
2022-09-18T11:06:49.658Z,1.9
2022-09-18T11:08:50.480Z,1.9
2022-09-18T11:10:50.199Z,2.2
2022-09-18T11:12:53.558Z,2.3
2022-09-18T11:14:49.689Z,2.3
2022-09-18T11:16:49.770Z,2.4
2022-09-18T11:18:49.711Z,2.3
2022-09-18T11:20:49.752Z,2.3
2022-09-18T11:22:50.529Z,2.3
2022-09-18T11:24:50.360Z,2.3
2022-09-18T11:26:49.729Z,2.3
2022-09-18T11:28:49.682Z,2.3
2022-09-18T11:30:50.540Z,2.7
2022-09-18T11:32:50.332Z,2.8
2022-09-18T11:34:49.674Z,2.7
2022-09-18T11:36:49.847Z,2.4
2022-09-18T11:38:49.795Z,2.4
2022-09-18T11:40:49.739Z,2.4
2022-09-18T11:42:49.761Z,2.9
2022-09-18T11:44:49.605Z,3.0
2022-09-18T11:46:49.577Z,2.7
2022-09-18T11:48:50.013Z,3.3
2022-09-18T11:50:50.083Z,3.3
2022-09-18T11:52:50.115Z,2.8
2022-09-18T11:54:50.040Z,2.6
2022-09-18T11:56:49.738Z,2.6
2022-09-18T11:58:50.247Z,2.6
2022-09-18T12:00:50.285Z,2.5
2022-09-18T12:02:50.335Z,2.5
2022-09-18T12:04:49.819Z,2.5
2022-09-18T12:06:49.821Z,2.5
2022-09-18T12:08:48.490Z,2.5
2022-09-18T12:10:48.268Z,2.3
2022-09-18T12:12:48.383Z,2.8
2022-09-18T12:14:48.407Z,2.4
2022-09-18T12:16:48.677Z,2.6
2022-09-18T12:18:48.714Z,2.2
2022-09-18T12:20:48.543Z,2.2
2022-09-18T12:22:48.709Z,2.3
2022-09-18T12:24:48.760Z,2.1
2022-09-18T12:26:48.961Z,2.1
2022-09-18T12:28:48.823Z,1.9
2022-09-18T12:30:48.789Z,1.9
2022-09-18T12:32:48.693Z,2.0
2022-09-18T12:34:49.082Z,1.8
2022-09-18T12:36:48.368Z,1.8
2022-09-18T12:38:48.964Z,1.7
2022-09-18T12:40:48.898Z,1.7
2022-09-18T12:42:48.863Z,1.7
2022-09-18T12:44:49.744Z,1.7
2022-09-18T12:46:49.742Z,2.1
2022-09-18T12:48:49.100Z,2.1
2022-09-18T12:50:49.394Z,1.8
2022-09-18T12:53:06.477Z,2.3
2022-09-18T12:54:49.234Z,1.5
2022-09-18T12:56:49.479Z,1.5
2022-09-18T12:58:49.390Z,2.2
2022-09-18T13:00:49.326Z,2.0
2022-09-18T13:02:51.420Z,1.9
2022-09-18T13:04:49.243Z,1.9
2022-09-18T13:06:49.073Z,1.6
2022-09-18T13:08:49.065Z,1.4
2022-09-18T13:10:48.976Z,1.7
2022-09-18T13:12:48.909Z,2.0
2022-09-18T13:14:49.779Z,2.0
2022-09-18T13:16:50.601Z,2.9
2022-09-18T13:18:49.887Z,2.9
2022-09-18T13:20:49.732Z,2.1
2022-09-18T13:22:53.263Z,1.6
2022-09-18T13:24:49.848Z,1.7
2022-09-18T13:26:50.175Z,1.7
2022-09-18T13:28:50.243Z,2.6
2022-09-18T13:30:50.009Z,1.6
2022-09-18T13:32:49.808Z,1.6
2022-09-18T13:34:50.350Z,1.6
2022-09-18T13:36:49.684Z,1.6
2022-09-18T13:38:49.705Z,1.6
2022-09-18T13:40:49.609Z,2.1
2022-09-18T13:42:49.825Z,2.6
2022-09-18T13:44:49.803Z,2.6
2022-09-18T13:46:50.233Z,1.6
2022-09-18T13:48:49.759Z,1.6
2022-09-18T13:50:50.040Z,2.0
2022-09-18T13:52:49.931Z,2.0
2022-09-18T13:54:50.321Z,2.7
2022-09-18T13:56:50.387Z,2.7
2022-09-18T13:58:50.392Z,1.9
2022-09-18T14:00:49.654Z,3.0
2022-09-18T14:02:49.862Z,1.4
2022-09-18T14:04:49.531Z,1.4
2022-09-18T14:06:49.699Z,2.2
2022-09-18T14:08:49.727Z,1.7
2022-09-18T14:11:11.587Z,1.7
2022-09-18T14:12:50.142Z,1.7
2022-09-18T14:14:50.151Z,1.7
2022-09-18T14:16:50.317Z,3.1
2022-09-18T14:18:50.176Z,1.7
2022-09-18T14:20:50.130Z,1.8
2022-09-18T14:22:50.004Z,1.8
2022-09-18T14:24:49.993Z,3.0
2022-09-18T14:26:50.217Z,2.0
2022-09-18T14:28:49.994Z,1.6
2022-09-18T14:30:50.115Z,1.9
2022-09-18T14:32:49.931Z,1.9
2022-09-18T14:34:50.192Z,2.3
2022-09-18T14:36:50.365Z,1.7
2022-09-18T14:38:50.309Z,1.9
2022-09-18T14:40:49.722Z,1.8
2022-09-18T14:42:49.509Z,1.8
2022-09-18T14:44:50.335Z,1.8
2022-09-18T14:46:49.563Z,1.8
2022-09-18T14:48:50.368Z,1.9
2022-09-18T14:50:50.431Z,3.7
2022-09-18T14:52:50.191Z,2.3
2022-09-18T14:54:49.980Z,2.3
2022-09-18T14:56:50.238Z,3.4
2022-09-18T14:58:50.138Z,2.5
2022-09-18T15:00:50.062Z,2.5
2022-09-18T15:02:50.209Z,2.3
2022-09-18T15:04:49.796Z,2.3
2022-09-18T15:06:49.595Z,2.4
2022-09-18T15:08:50.388Z,2.7
2022-09-18T15:10:49.549Z,2.3
2022-09-18T15:12:50.354Z,2.3
2022-09-18T15:14:50.083Z,4.1
2022-09-18T15:16:50.127Z,3.1
2022-09-18T15:18:50.167Z,4.2
2022-09-18T15:20:49.946Z,4.2
2022-09-18T15:22:49.896Z,3.1
2022-09-18T15:24:50.133Z,3.0
2022-09-18T15:26:53.201Z,2.7
2022-09-18T15:28:50.535Z,3.6
2022-09-18T15:30:49.654Z,3.6
2022-09-18T15:32:49.781Z,3.5
2022-09-18T15:34:50.150Z,3.2
2022-09-18T15:36:50.440Z,3.0
2022-09-18T15:38:50.435Z,3.0
2022-09-18T15:40:49.630Z,2.7
2022-09-18T15:42:50.461Z,3.6
2022-09-18T15:44:50.441Z,2.9
2022-09-18T15:46:49.671Z,2.8
2022-09-18T15:48:50.143Z,2.8
2022-09-18T15:50:50.148Z,3.2
2022-09-18T15:52:50.161Z,3.2
2022-09-18T15:54:49.928Z,4.2
2022-09-18T15:56:50.512Z,3.9
2022-09-18T15:58:50.525Z,3.9
2022-09-18T16:00:50.380Z,4.0
2022-09-18T16:02:49.574Z,3.7
2022-09-18T16:04:50.171Z,3.5
2022-09-18T16:06:50.497Z,3.1
2022-09-18T16:08:50.397Z,3.4
2022-09-18T16:10:50.395Z,5.6
2022-09-18T16:12:50.185Z,5.6
2022-09-18T16:14:50.111Z,3.5
2022-09-18T16:16:50.353Z,3.5
2022-09-18T16:18:50.175Z,3.5
2022-09-18T16:20:50.112Z,3.5
2022-09-18T16:22:49.926Z,3.3
2022-09-18T16:24:49.681Z,3.6
2022-09-18T16:26:49.852Z,3.2
2022-09-18T16:28:49.741Z,3.9
2022-09-18T16:30:49.710Z,3.9
2022-09-18T16:32:50.522Z,3.5
2022-09-18T16:34:49.907Z,4.0
2022-09-18T16:36:50.172Z,4.4
2022-09-18T16:38:49.956Z,4.4
2022-09-18T16:40:49.999Z,4.7
2022-09-18T16:42:49.913Z,4.4
2022-09-18T16:44:49.574Z,3.5
2022-09-18T16:46:49.964Z,3.5
2022-09-18T16:48:50.302Z,3.5
2022-09-18T16:50:50.301Z,4.3
2022-09-18T16:52:50.168Z,4.0
2022-09-18T16:54:49.996Z,4.4
2022-09-18T16:56:50.141Z,4.4
2022-09-18T16:58:49.840Z,4.9
2022-09-18T17:00:49.881Z,3.8
2022-09-18T17:02:50.324Z,5.0
2022-09-18T17:04:50.041Z,5.0
2022-09-18T17:06:50.313Z,3.9
2022-09-18T17:08:50.291Z,3.9
2022-09-18T17:10:49.899Z,5.1
2022-09-18T17:12:50.074Z,4.0
2022-09-18T17:14:49.984Z,4.0
2022-09-18T17:16:50.021Z,4.6
2022-09-18T17:18:49.570Z,4.6
2022-09-18T17:20:50.527Z,3.6
2022-09-18T17:22:49.566Z,4.0
2022-09-18T17:24:50.406Z,4.0
2022-09-18T17:26:49.687Z,3.8
2022-09-18T17:28:49.655Z,3.8
2022-09-18T17:30:49.846Z,3.5
2022-09-18T17:32:49.827Z,3.6
2022-09-18T17:34:50.310Z,3.6
2022-09-18T17:36:50.514Z,3.8
2022-09-18T17:38:50.469Z,3.8
2022-09-18T17:40:50.314Z,3.5
2022-09-18T17:42:50.315Z,4.7
2022-09-18T17:44:50.183Z,3.7
2022-09-18T17:46:50.463Z,3.7
2022-09-18T17:48:49.819Z,4.1
2022-09-18T17:50:49.814Z,4.3
2022-09-18T17:52:49.658Z,3.8
2022-09-18T17:54:50.419Z,3.9
2022-09-18T17:56:49.633Z,3.9
2022-09-18T17:58:50.502Z,4.1
2022-09-18T18:00:50.523Z,4.0
2022-09-18T18:02:49.764Z,4.2
2022-09-18T18:04:50.158Z,3.9
2022-09-18T18:06:50.218Z,3.9
2022-09-18T18:08:50.119Z,4.1
2022-09-18T18:10:50.057Z,3.9
2022-09-18T18:12:49.817Z,4.3
2022-09-18T18:14:49.581Z,4.3
2022-09-18T18:16:52.543Z,4.8
2022-09-18T18:18:49.635Z,4.1
2022-09-18T18:20:50.518Z,4.5
2022-09-18T18:22:50.448Z,4.2
2022-09-18T18:24:50.234Z,4.2
2022-09-18T18:26:50.518Z,4.6
2022-09-18T18:28:50.265Z,5.7
2022-09-18T18:30:50.303Z,4.2
2022-09-18T18:32:50.157Z,3.9
2022-09-18T18:34:50.286Z,3.9
2022-09-18T18:36:50.484Z,5.1
2022-09-18T18:38:50.307Z,4.4
2022-09-18T18:40:50.269Z,4.2
2022-09-18T18:42:50.073Z,4.2
2022-09-18T18:44:50.091Z,4.4
2022-09-18T18:46:50.524Z,4.2
2022-09-18T18:48:49.705Z,5.0
2022-09-18T18:50:49.698Z,4.6
2022-09-18T18:52:50.490Z,4.6
2022-09-18T18:54:49.618Z,6.6
2022-09-18T18:56:50.000Z,4.8
2022-09-18T18:58:50.180Z,3.9
2022-09-18T19:00:50.287Z,4.0
2022-09-18T19:02:49.829Z,4.0
2022-09-18T19:04:50.199Z,3.5
2022-09-18T19:06:50.393Z,3.8
2022-09-18T19:08:50.282Z,3.6
2022-09-18T19:10:50.178Z,3.6
2022-09-18T19:12:50.064Z,3.6
2022-09-18T19:14:49.960Z,3.5
2022-09-18T19:16:50.250Z,3.3
2022-09-18T19:18:50.201Z,3.4
2022-09-18T19:20:50.036Z,3.4
2022-09-18T19:22:50.164Z,3.6
2022-09-18T19:24:49.951Z,3.5
2022-09-18T19:26:50.276Z,5.6
2022-09-18T19:28:50.159Z,3.4
2022-09-18T19:30:50.176Z,3.4
2022-09-18T19:32:50.157Z,3.8
2022-09-18T19:34:50.433Z,3.6
2022-09-18T19:36:49.657Z,3.1
2022-09-18T19:38:49.950Z,3.1
2022-09-18T19:40:49.991Z,3.4
2022-09-18T19:42:49.993Z,3.6
2022-09-18T19:44:50.051Z,3.6
2022-09-18T19:46:50.242Z,3.3
2022-09-18T19:48:50.357Z,3.3
2022-09-18T19:50:50.366Z,4.7
2022-09-18T19:52:51.457Z,4.7
2022-09-18T19:54:50.260Z,3.3
2022-09-18T19:56:50.399Z,3.2
2022-09-18T19:58:50.361Z,3.5
2022-09-18T20:00:50.237Z,3.5
2022-09-18T20:02:49.809Z,4.8
2022-09-18T20:04:50.143Z,3.2
2022-09-18T20:06:49.830Z,2.5
2022-09-18T20:08:49.654Z,2.5
2022-09-18T20:10:49.734Z,1.7
2022-09-18T20:12:49.817Z,1.9
2022-09-18T20:14:49.565Z,1.7
2022-09-18T20:16:49.897Z,1.4
2022-09-18T20:18:49.709Z,1.4
2022-09-18T20:20:49.650Z,1.3
2022-09-18T20:22:49.566Z,1.6
2022-09-18T20:24:49.740Z,2.6
2022-09-18T20:26:49.746Z,2.2
2022-09-18T20:28:50.527Z,2.2
2022-09-18T20:30:50.468Z,1.6
2022-09-18T20:32:50.338Z,1.7
2022-09-18T20:34:49.846Z,1.3
2022-09-18T20:36:50.069Z,1.6
2022-09-18T20:38:50.074Z,1.5
2022-09-18T20:40:50.255Z,1.5
2022-09-18T20:42:50.244Z,1.3
2022-09-18T20:44:50.234Z,2.0
2022-09-18T20:46:49.670Z,2.0
2022-09-18T20:48:50.344Z,1.5
2022-09-18T20:50:50.381Z,1.5
2022-09-18T20:52:50.203Z,1.5
2022-09-18T20:54:50.068Z,1.5
2022-09-18T20:56:50.353Z,1.5
2022-09-18T20:58:50.332Z,1.7
2022-09-18T21:00:50.420Z,1.7
2022-09-18T21:02:49.539Z,1.3
2022-09-18T21:04:49.994Z,1.4
2022-09-18T21:06:50.225Z,2.9
2022-09-18T21:08:50.005Z,2.9
2022-09-18T21:10:49.810Z,1.5
2022-09-18T21:12:49.688Z,1.4
2022-09-18T21:14:49.597Z,1.4
2022-09-18T21:16:49.976Z,1.5
2022-09-18T21:18:49.849Z,1.5
2022-09-18T21:20:49.746Z,1.2
2022-09-18T21:22:49.576Z,1.3
2022-09-18T21:24:50.491Z,1.5
2022-09-18T21:26:49.897Z,1.5
2022-09-18T21:28:49.767Z,1.8
2022-09-18T21:30:49.783Z,1.6
2022-09-18T21:32:52.585Z,1.6
2022-09-18T21:34:50.171Z,1.8
2022-09-18T21:36:50.166Z,1.8
2022-09-18T21:38:50.235Z,1.8
2022-09-18T21:40:50.136Z,1.7
2022-09-18T21:42:49.795Z,1.6
2022-09-18T21:44:49.555Z,1.7
2022-09-18T21:46:49.904Z,1.7
2022-09-18T21:48:50.011Z,1.9
2022-09-18T21:50:49.611Z,1.4
2022-09-18T21:52:49.539Z,1.4
2022-09-18T21:54:50.342Z,1.4
2022-09-18T21:56:50.359Z,1.4
2022-09-18T21:58:50.043Z,1.4
2022-09-18T22:00:50.126Z,1.4
2022-09-18T22:02:50.417Z,1.2
2022-09-18T22:04:49.951Z,1.2
2022-09-18T22:06:50.214Z,1.4
2022-09-18T22:08:50.027Z,2.4
2022-09-18T22:10:49.886Z,1.6
2022-09-18T22:12:49.686Z,1.6
2022-09-18T22:14:49.628Z,1.6
2022-09-18T22:16:49.783Z,1.4
2022-09-18T22:18:50.485Z,1.6
2022-09-18T22:20:50.452Z,1.2
2022-09-18T22:22:50.469Z,1.2
2022-09-18T22:24:50.419Z,1.5
2022-09-18T22:26:50.484Z,1.4
2022-09-18T22:28:50.419Z,1.2
2022-09-18T22:30:50.268Z,1.3
2022-09-18T22:32:50.040Z,1.3
2022-09-18T22:34:50.334Z,1.3
2022-09-18T22:36:50.425Z,2.3
2022-09-18T22:38:50.185Z,3.0
2022-09-18T22:40:49.939Z,1.4
2022-09-18T22:42:49.759Z,1.3
2022-09-18T22:44:49.734Z,1.3
2022-09-18T22:46:49.881Z,1.5
2022-09-18T22:48:50.203Z,1.2
2022-09-18T22:50:49.934Z,1.2
2022-09-18T22:52:49.831Z,1.2
2022-09-18T22:54:49.594Z,1.2
2022-09-18T22:56:49.803Z,1.2
2022-09-18T22:58:50.577Z,1.2
2022-09-18T23:00:50.512Z,1.2
2022-09-18T23:02:50.248Z,2.7
2022-09-18T23:04:50.514Z,2.7
2022-09-18T23:06:49.940Z,1.3
2022-09-18T23:08:49.662Z,1.3
2022-09-18T23:10:50.432Z,1.2
2022-09-18T23:12:50.125Z,1.2
2022-09-18T23:14:49.914Z,1.3
2022-09-18T23:16:49.910Z,1.2
2022-09-18T23:18:49.708Z,1.5
2022-09-18T23:20:49.778Z,1.3
2022-09-18T23:22:49.644Z,1.3
2022-09-18T23:24:50.524Z,1.2
2022-09-18T23:26:49.623Z,1.9
2022-09-18T23:28:50.510Z,1.9
2022-09-18T23:30:50.399Z,1.2
2022-09-18T23:32:50.298Z,1.2
2022-09-18T23:34:49.663Z,1.4
2022-09-18T23:36:49.892Z,1.4
2022-09-18T23:38:49.707Z,1.5
2022-09-18T23:40:49.603Z,1.3
2022-09-18T23:42:50.375Z,1.3
2022-09-18T23:44:50.129Z,1.5
2022-09-18T23:46:50.470Z,1.4
2022-09-18T23:48:49.842Z,1.3
2022-09-18T23:50:49.797Z,1.3
2022-09-18T23:52:49.552Z,1.3
2022-09-18T23:54:50.483Z,1.5
2022-09-18T23:56:49.753Z,1.4
2022-09-18T23:58:49.628Z,1.4
